CheckWX is a tool to help pilots better visualize weather data.  It is not intended as a substitute for an official pre-flight weather briefing.

03:23:28 UTC

UIII METAR
Irkutsk Airport
Irkutsk, Russian Federation
Current

23 mins ago

UIII 150300Z 27005MPS 240V300 9999 BKN007CB 19/19 Q1001 R30/290155 NOSIG RMK QBB230 QFE707/0943
Observed
Jul-15 @ 03:00 UTC
Wind
  • 270° at 10 KTS
Visibility
10,000+ meters
Flight Rules
IFR
Cloud Levels
  • Broken at 700' AGL
Temperature
19°C / 66°F
Dewpoint
19°C / 66°F
Humidity
100%
Altimeter
29.56" Hg
Pressure
1000.92 hPa
Previous

53 mins ago

UIII 150230Z 24004MPS 8000 BKN004CB 19/19 Q1001 R30/290155 NOSIG RMK QBB130 QFE707/0943
Observed
Jul-15 @ 02:30 UTC
Wind
  • 240° at 8 KTS
Visibility
7998 meters
Flight Rules
LIFR
Cloud Levels
  • Broken at 400' AGL
Temperature
19°C / 66°F
Dewpoint
19°C / 66°F
Humidity
100%
Altimeter
29.56" Hg
Pressure
1000.92 hPa
Previous

1 hour ago

UIII 150200Z 24005MPS 9999 BKN007CB 20/19 Q1001 R30/290155 NOSIG RMK QBB230 QFE707/0943
Observed
Jul-15 @ 02:00 UTC
Wind
  • 240° at 10 KTS
Visibility
10,000+ meters
Flight Rules
IFR
Cloud Levels
  • Broken at 700' AGL
Temperature
20°C / 68°F
Dewpoint
19°C / 66°F
Humidity
94%
Altimeter
29.56" Hg
Pressure
1000.92 hPa